createdAt,value
2019-04-03T00:01:11.047Z,8.55
2019-04-03T00:03:42.114Z,8.49
2019-04-03T00:06:13.411Z,8.52
2019-04-03T00:08:45.313Z,8.52
2019-04-03T00:11:16.372Z,8.42
2019-04-03T00:13:47.262Z,8.44
2019-04-03T00:16:18.277Z,8.38
2019-04-03T00:18:49.513Z,8.41
2019-04-03T00:21:20.433Z,8.24
2019-04-03T00:23:52.621Z,8.24
2019-04-03T00:26:23.637Z,8.23
2019-04-03T00:28:54.606Z,8.26
2019-04-03T00:31:26.038Z,8.17
2019-04-03T00:33:57.051Z,8.15
2019-04-03T00:36:28.041Z,8.15
2019-04-03T00:38:58.723Z,8.11
2019-04-03T00:41:29.617Z,8.13
2019-04-03T00:44:00.649Z,8.15
2019-04-03T00:46:31.724Z,8.04
2019-04-03T00:49:02.820Z,8.02
2019-04-03T00:51:33.868Z,7.97
2019-04-03T00:54:04.843Z,7.88
2019-04-03T00:56:35.834Z,7.82
2019-04-03T00:59:07.243Z,7.79
2019-04-03T01:01:38.220Z,7.72
2019-04-03T01:04:09.611Z,7.66
2019-04-03T01:06:40.410Z,7.61
2019-04-03T01:09:11.670Z,7.63
2019-04-03T01:11:42.247Z,7.64
2019-04-03T01:14:13.557Z,7.66
2019-04-03T01:16:44.331Z,7.61
2019-04-03T01:19:15.168Z,7.59
2019-04-03T01:21:46.077Z,7.58
2019-04-03T01:24:16.927Z,7.58
2019-04-03T01:26:48.079Z,7.58
2019-04-03T01:29:19.222Z,7.51
2019-04-03T01:31:50.394Z,7.52
2019-04-03T01:34:22.299Z,7.46
2019-04-03T01:36:54.574Z,7.40
2019-04-03T01:39:25.515Z,7.30
2019-04-03T01:41:56.127Z,7.31
2019-04-03T01:44:27.071Z,7.22
2019-04-03T01:46:59.099Z,7.21
2019-04-03T01:49:29.781Z,7.18
2019-04-03T01:52:01.491Z,7.15
2019-04-03T01:54:33.702Z,7.12
2019-04-03T01:57:06.643Z,7.13
2019-04-03T01:59:38.144Z,7.10
2019-04-03T02:02:09.396Z,7.05
2019-04-03T02:04:42.021Z,7.03
2019-04-03T02:07:14.357Z,7.00
2019-04-03T02:09:46.568Z,6.98
2019-04-03T02:12:19.786Z,6.94
2019-04-03T02:14:51.874Z,6.93
2019-04-03T02:17:23.898Z,6.89
2019-04-03T02:19:56.367Z,6.85
2019-04-03T02:22:29.222Z,6.82
2019-04-03T02:25:02.178Z,6.74
2019-04-03T02:27:34.113Z,6.77
2019-04-03T02:30:07.369Z,6.72
2019-04-03T02:32:38.282Z,6.72
2019-04-03T02:35:09.207Z,6.66
2019-04-03T02:37:40.524Z,6.67
2019-04-03T02:40:12.558Z,6.65
2019-04-03T02:42:43.671Z,6.64
2019-04-03T02:45:15.400Z,6.62
2019-04-03T02:47:46.496Z,6.70
2019-04-03T02:50:20.454Z,6.65
2019-04-03T02:52:51.985Z,6.63
2019-04-03T02:55:23.370Z,6.61
2019-04-03T02:57:54.184Z,6.57
2019-04-03T03:00:25.394Z,6.57
2019-04-03T03:02:56.181Z,6.54
2019-04-03T03:05:29.109Z,6.51
2019-04-03T03:08:00.039Z,6.49
2019-04-03T03:10:31.932Z,6.53
2019-04-03T03:13:03.114Z,6.50
2019-04-03T03:15:34.669Z,6.47
2019-04-03T03:18:05.626Z,6.48
2019-04-03T03:20:39.826Z,6.50
2019-04-03T03:23:09.504Z,6.52
2019-04-03T03:25:41.402Z,6.48
2019-04-03T03:28:14.327Z,6.47
2019-04-03T03:30:55.749Z,6.44
2019-04-03T03:33:32.772Z,6.38
2019-04-03T03:35:52.447Z,6.31
2019-04-03T03:38:27.515Z,6.26
2019-04-03T03:40:56.632Z,6.21
2019-04-03T03:43:27.892Z,6.22
2019-04-03T03:46:01.216Z,6.23
2019-04-03T03:48:32.907Z,6.17
2019-04-03T03:51:04.801Z,6.13
2019-04-03T03:53:35.631Z,6.11
2019-04-03T03:56:06.578Z,6.08
2019-04-03T03:58:37.786Z,6.07
2019-04-03T04:01:08.732Z,6.07
2019-04-03T04:03:41.061Z,6.03
2019-04-03T04:06:12.963Z,6.01
2019-04-03T04:08:45.152Z,6.01
2019-04-03T04:11:16.111Z,6.01
2019-04-03T04:13:48.745Z,5.92
2019-04-03T04:16:19.943Z,5.79
2019-04-03T04:18:51.105Z,5.79
2019-04-03T04:21:22.621Z,5.80
2019-04-03T04:23:56.283Z,5.85
2019-04-03T04:26:27.390Z,5.81
2019-04-03T04:28:58.681Z,5.83
2019-04-03T04:31:29.400Z,5.72
2019-04-03T04:34:00.176Z,5.70
2019-04-03T04:36:31.652Z,5.65
2019-04-03T04:39:02.999Z,5.63
2019-04-03T04:41:34.750Z,5.60
2019-04-03T04:44:06.055Z,5.53
2019-04-03T04:46:37.624Z,5.50
2019-04-03T04:49:08.575Z,5.48
2019-04-03T04:51:39.979Z,5.50
2019-04-03T04:54:11.110Z,5.48
2019-04-03T04:56:42.395Z,5.46
2019-04-03T04:59:14.238Z,5.51
2019-04-03T05:01:45.491Z,5.54
2019-04-03T05:04:16.596Z,5.56
2019-04-03T05:06:47.993Z,5.59
2019-04-03T05:09:19.434Z,5.63
2019-04-03T05:11:50.468Z,5.68
2019-04-03T05:14:21.392Z,5.71
2019-04-03T05:16:52.247Z,5.77
2019-04-03T05:19:23.830Z,5.79
2019-04-03T05:21:54.718Z,5.81
2019-04-03T05:24:28.462Z,5.87
2019-04-03T05:26:58.542Z,5.92
2019-04-03T05:29:29.656Z,5.99
2019-04-03T05:32:00.909Z,6.05
2019-04-03T05:34:32.058Z,6.12
2019-04-03T05:37:03.330Z,6.18
2019-04-03T05:39:34.300Z,6.26
2019-04-03T05:42:05.130Z,6.31
2019-04-03T05:44:36.094Z,6.42
2019-04-03T05:47:08.127Z,6.53
2019-04-03T05:49:40.222Z,6.66
2019-04-03T05:52:12.311Z,6.77
2019-04-03T05:54:44.577Z,6.89
2019-04-03T05:57:15.390Z,6.99
2019-04-03T05:59:58.724Z,7.10
2019-04-03T06:02:20.991Z,7.22
2019-04-03T06:04:52.219Z,7.33
2019-04-03T06:07:23.657Z,7.44
2019-04-03T06:09:58.450Z,7.51
2019-04-03T06:12:28.564Z,7.64
2019-04-03T06:14:59.803Z,7.77
2019-04-03T06:17:31.049Z,7.85
2019-04-03T06:20:02.518Z,7.93
2019-04-03T06:22:34.027Z,8.09
2019-04-03T06:25:06.950Z,8.22
2019-04-03T06:27:42.213Z,8.33
2019-04-03T06:30:12.638Z,8.44
2019-04-03T06:32:43.958Z,8.52
2019-04-03T06:35:14.667Z,8.60
2019-04-03T06:37:45.958Z,8.76
2019-04-03T06:40:17.469Z,8.75
2019-04-03T06:42:49.240Z,8.87
2019-04-03T06:45:21.172Z,9.00
2019-04-03T06:47:52.299Z,9.14
2019-04-03T06:50:23.648Z,9.23
2019-04-03T06:52:55.464Z,9.29
2019-04-03T06:55:26.865Z,9.42
2019-04-03T06:57:57.505Z,9.60
2019-04-03T07:00:29.076Z,9.63
2019-04-03T07:03:01.499Z,9.80
2019-04-03T07:05:32.572Z,9.92
2019-04-03T07:08:05.049Z,10.01
2019-04-03T07:10:36.614Z,10.11
2019-04-03T07:13:08.607Z,10.18
2019-04-03T07:15:40.048Z,10.20
2019-04-03T07:18:11.803Z,10.27
2019-04-03T07:20:43.029Z,10.41
2019-04-03T07:23:16.045Z,10.59
2019-04-03T07:25:47.176Z,10.72
2019-04-03T07:28:18.088Z,10.83
2019-04-03T07:30:52.333Z,10.95
2019-04-03T07:33:22.131Z,11.03
2019-04-03T07:35:53.431Z,11.10
2019-04-03T07:38:26.011Z,11.19
2019-04-03T07:40:57.677Z,11.28
2019-04-03T07:43:29.127Z,11.38
2019-04-03T07:46:03.130Z,11.40
2019-04-03T07:48:33.585Z,11.45
2019-04-03T07:51:05.394Z,11.57
2019-04-03T07:53:37.307Z,11.71
2019-04-03T07:56:08.693Z,11.78
2019-04-03T07:58:39.895Z,11.83
2019-04-03T08:01:12.077Z,11.91
2019-04-03T08:03:43.303Z,12.05
2019-04-03T08:06:14.932Z,12.21
2019-04-03T08:08:46.020Z,12.38
2019-04-03T08:11:17.005Z,12.39
2019-04-03T08:13:48.243Z,12.46
2019-04-03T08:16:19.747Z,12.66
2019-04-03T08:18:51.781Z,12.75
2019-04-03T08:21:23.576Z,12.86
2019-04-03T08:23:54.735Z,12.99
2019-04-03T08:26:27.382Z,13.10
2019-04-03T08:29:01.760Z,13.07
2019-04-03T08:31:32.061Z,13.06
2019-04-03T08:34:14.832Z,13.21
2019-04-03T08:36:38.145Z,13.45
2019-04-03T08:39:08.633Z,13.66
2019-04-03T08:41:40.137Z,13.85
2019-04-03T08:44:11.196Z,14.04
2019-04-03T08:46:43.869Z,14.17
2019-04-03T08:49:15.162Z,14.26
2019-04-03T08:51:45.492Z,14.38
2019-04-03T08:54:16.109Z,14.52
2019-04-03T08:56:48.639Z,14.64
2019-04-03T08:59:19.964Z,14.81
2019-04-03T09:01:51.105Z,14.85
2019-04-03T09:04:22.148Z,14.89
2019-04-03T09:06:54.635Z,15.02
2019-04-03T09:09:26.973Z,15.13
2019-04-03T09:11:59.071Z,15.26
2019-04-03T09:14:30.844Z,15.30
2019-04-03T09:17:02.690Z,15.37
2019-04-03T09:19:35.094Z,15.39
2019-04-03T09:22:06.561Z,15.46
2019-04-03T09:24:37.083Z,15.55
2019-04-03T09:27:08.956Z,15.65
2019-04-03T09:29:40.162Z,15.83
2019-04-03T09:32:11.027Z,15.87
2019-04-03T09:34:42.451Z,15.99
2019-04-03T09:37:13.529Z,16.07
2019-04-03T09:39:45.777Z,16.07
2019-04-03T09:42:17.363Z,15.97
2019-04-03T09:44:49.210Z,15.96
2019-04-03T09:47:21.875Z,16.05
2019-04-03T09:49:53.055Z,16.04
2019-04-03T09:52:37.364Z,16.00
2019-04-03T09:54:59.750Z,15.98
2019-04-03T09:57:32.004Z,16.07
2019-04-03T10:00:04.016Z,16.09
2019-04-03T10:02:37.761Z,16.07
2019-04-03T10:05:08.989Z,16.16
2019-04-03T10:07:40.610Z,16.24
2019-04-03T10:10:15.589Z,16.28
2019-04-03T10:12:47.945Z,16.30
2019-04-03T10:15:19.746Z,16.47
2019-04-03T10:17:51.167Z,16.61
2019-04-03T10:20:22.468Z,16.88
2019-04-03T10:22:56.358Z,17.06
2019-04-03T10:25:27.648Z,17.15
2019-04-03T10:28:00.487Z,17.16
2019-04-03T10:30:32.921Z,17.05
2019-04-03T10:33:04.663Z,17.18
2019-04-03T10:35:38.560Z,17.36
2019-04-03T10:38:08.771Z,17.48
2019-04-03T10:40:40.758Z,17.46
2019-04-03T10:43:12.276Z,17.45
2019-04-03T10:45:43.854Z,17.50
2019-04-03T10:48:15.704Z,17.67
2019-04-03T10:50:47.052Z,17.85
2019-04-03T10:53:19.998Z,17.93
2019-04-03T10:55:52.326Z,18.16
2019-04-03T10:58:24.293Z,18.28
2019-04-03T11:00:56.900Z,18.41
2019-04-03T11:03:28.945Z,18.39
2019-04-03T11:06:01.041Z,18.38
2019-04-03T11:08:31.843Z,18.11
2019-04-03T11:11:04.900Z,17.97
2019-04-03T11:13:37.024Z,17.93
2019-04-03T11:16:08.386Z,18.02
2019-04-03T11:18:40.904Z,18.10
2019-04-03T11:21:12.797Z,18.17
2019-04-03T11:23:45.561Z,18.18
2019-04-03T11:26:19.136Z,18.36
2019-04-03T11:28:50.470Z,18.47
2019-04-03T11:31:26.589Z,18.59
2019-04-03T11:33:55.260Z,18.71
2019-04-03T11:36:30.257Z,18.83
2019-04-03T11:39:11.639Z,18.83
2019-04-03T11:41:34.487Z,18.94
2019-04-03T11:44:06.110Z,19.14
2019-04-03T11:46:37.623Z,19.32
2019-04-03T11:49:10.281Z,19.37
2019-04-03T11:51:41.151Z,19.10
2019-04-03T11:54:12.292Z,18.95
2019-04-03T11:56:45.258Z,18.77
2019-04-03T11:59:17.912Z,18.74
2019-04-03T12:01:51.199Z,18.87
2019-04-03T12:04:21.789Z,18.96
2019-04-03T12:06:54.196Z,19.04
2019-04-03T12:09:25.706Z,19.15
2019-04-03T12:11:58.009Z,19.27
2019-04-03T12:14:29.612Z,19.32
2019-04-03T12:17:00.606Z,19.36
2019-04-03T12:19:31.676Z,19.26
2019-04-03T12:22:04.613Z,19.23
2019-04-03T12:24:35.606Z,19.02
2019-04-03T12:27:06.807Z,19.09
2019-04-03T12:29:37.655Z,19.02
2019-04-03T12:32:10.344Z,19.17
2019-04-03T12:34:41.644Z,19.35
2019-04-03T12:37:12.843Z,19.45
2019-04-03T12:39:44.170Z,19.52
2019-04-03T12:42:17.651Z,19.62
2019-04-03T12:44:48.849Z,19.67
2019-04-03T12:47:19.715Z,19.81
2019-04-03T12:49:53.384Z,19.96
2019-04-03T12:52:24.256Z,20.13
2019-04-03T12:54:55.359Z,20.25
2019-04-03T12:57:26.439Z,20.24
2019-04-03T12:59:57.273Z,20.19
2019-04-03T13:02:28.958Z,19.96
2019-04-03T13:05:01.380Z,19.90
2019-04-03T13:07:36.241Z,20.01
2019-04-03T13:10:08.865Z,20.05
2019-04-03T13:12:40.318Z,19.99
2019-04-03T13:15:11.547Z,20.13
2019-04-03T13:17:45.429Z,20.18
2019-04-03T13:20:16.687Z,20.11
2019-04-03T13:22:47.824Z,20.17
2019-04-03T13:25:20.611Z,20.14
2019-04-03T13:27:51.925Z,20.16
2019-04-03T13:30:23.537Z,20.10
2019-04-03T13:32:59.608Z,20.24
2019-04-03T13:35:27.910Z,20.17
2019-04-03T13:37:59.458Z,20.09
2019-04-03T13:40:30.973Z,19.92
2019-04-03T13:43:02.916Z,19.94
2019-04-03T13:45:34.596Z,19.94
2019-04-03T13:48:05.615Z,19.96
2019-04-03T13:50:36.970Z,20.02
2019-04-03T13:53:08.598Z,20.04
2019-04-03T13:55:40.724Z,19.86
2019-04-03T13:58:12.370Z,19.90
2019-04-03T14:00:52.109Z,19.73
2019-04-03T14:03:18.130Z,19.77
2019-04-03T14:05:49.371Z,19.87
2019-04-03T14:08:20.348Z,19.79
2019-04-03T14:10:51.619Z,19.85
2019-04-03T14:13:23.014Z,19.71
2019-04-03T14:15:56.030Z,19.71
2019-04-03T14:18:27.322Z,19.81
2019-04-03T14:20:58.958Z,19.73
2019-04-03T14:23:30.696Z,19.78
2019-04-03T14:26:06.202Z,19.73
2019-04-03T14:28:35.611Z,19.84
2019-04-03T14:31:10.739Z,19.70
2019-04-03T14:33:46.272Z,19.60
2019-04-03T14:36:18.487Z,19.68
2019-04-03T14:38:50.748Z,19.78
2019-04-03T14:41:21.925Z,19.82
2019-04-03T14:43:53.022Z,19.68
2019-04-03T14:46:27.446Z,19.69
2019-04-03T14:49:01.161Z,19.68
2019-04-03T14:51:33.151Z,19.62
2019-04-03T14:54:04.496Z,19.71
2019-04-03T14:56:36.019Z,19.69
2019-04-03T14:59:08.111Z,19.70
2019-04-03T15:01:43.234Z,19.65
2019-04-03T15:04:14.136Z,19.54
2019-04-03T15:06:46.774Z,19.50
2019-04-03T15:09:18.821Z,19.45
2019-04-03T15:11:50.190Z,19.40
2019-04-03T15:14:22.183Z,19.18
2019-04-03T15:16:54.569Z,18.96
2019-04-03T15:19:26.348Z,19.04
2019-04-03T15:22:01.496Z,19.05
2019-04-03T15:24:30.341Z,18.98
2019-04-03T15:27:01.209Z,18.95
2019-04-03T15:29:32.902Z,18.87
2019-04-03T15:32:04.337Z,18.89
2019-04-03T15:34:35.674Z,18.97
2019-04-03T15:37:08.929Z,19.07
2019-04-03T15:39:39.318Z,19.09
2019-04-03T15:42:11.674Z,18.98
2019-04-03T15:44:43.290Z,18.84
2019-04-03T15:47:20.501Z,18.77
2019-04-03T15:49:48.488Z,18.72
2019-04-03T15:52:20.302Z,18.68
2019-04-03T15:54:52.049Z,18.64
2019-04-03T15:57:24.402Z,18.62
2019-04-03T15:59:55.835Z,18.55
2019-04-03T16:02:28.977Z,18.49
2019-04-03T16:05:00.166Z,18.49
2019-04-03T16:07:33.497Z,18.44
2019-04-03T16:10:07.368Z,18.36
2019-04-03T16:12:42.755Z,18.26
2019-04-03T16:15:12.791Z,18.20
2019-04-03T16:17:44.430Z,18.17
2019-04-03T16:20:16.999Z,18.10
2019-04-03T16:22:48.311Z,18.07
2019-04-03T16:25:19.102Z,17.94
2019-04-03T16:27:51.262Z,17.89
2019-04-03T16:30:23.554Z,17.84
2019-04-03T16:33:03.496Z,17.76
2019-04-03T16:35:34.695Z,17.70
2019-04-03T16:38:10.546Z,17.62
2019-04-03T16:40:41.211Z,17.55
2019-04-03T16:43:12.683Z,17.49
2019-04-03T16:45:43.835Z,17.40
2019-04-03T16:48:19.684Z,17.28
2019-04-03T16:50:51.029Z,17.18
2019-04-03T16:53:22.631Z,17.10
2019-04-03T16:55:54.042Z,16.98
2019-04-03T16:58:26.489Z,16.92
2019-04-03T17:00:58.348Z,16.83
2019-04-03T17:03:32.465Z,16.79
2019-04-03T17:06:03.707Z,16.70
2019-04-03T17:08:35.489Z,16.62
2019-04-03T17:11:07.007Z,16.54
2019-04-03T17:13:38.589Z,16.43
2019-04-03T17:16:10.807Z,16.35
2019-04-03T17:18:47.129Z,16.31
2019-04-03T17:21:16.782Z,16.27
2019-04-03T17:23:48.188Z,16.15
2019-04-03T17:26:20.412Z,16.10
2019-04-03T17:29:01.862Z,16.02
2019-04-03T17:31:24.963Z,15.97
2019-04-03T17:33:55.853Z,15.89
2019-04-03T17:36:26.870Z,15.86
2019-04-03T17:38:58.765Z,15.78
2019-04-03T17:41:30.542Z,15.78
2019-04-03T17:44:02.151Z,15.73
2019-04-03T17:46:33.497Z,15.65
2019-04-03T17:49:06.779Z,15.58
2019-04-03T17:51:37.687Z,15.53
2019-04-03T17:54:08.894Z,15.45
2019-04-03T17:56:41.052Z,15.44
2019-04-03T17:59:12.797Z,15.39
2019-04-03T18:01:43.881Z,15.32
2019-04-03T18:04:15.517Z,15.30
2019-04-03T18:06:46.933Z,15.24
2019-04-03T18:09:17.649Z,15.21
2019-04-03T18:11:48.593Z,15.18
2019-04-03T18:14:29.418Z,15.10
2019-04-03T18:17:13.745Z,15.08
2019-04-03T18:19:57.737Z,15.01
2019-04-03T18:22:36.217Z,14.93
2019-04-03T18:25:08.652Z,14.88
2019-04-03T18:27:40.471Z,14.85
2019-04-03T18:30:12.709Z,14.89
2019-04-03T18:32:45.957Z,14.87
2019-04-03T18:35:16.693Z,14.81
2019-04-03T18:37:48.024Z,14.75
2019-04-03T18:40:19.063Z,14.74
2019-04-03T18:42:50.704Z,14.71
2019-04-03T18:45:25.501Z,14.65
2019-04-03T18:47:54.703Z,14.64
2019-04-03T18:50:25.717Z,14.62
2019-04-03T18:52:56.929Z,14.57
2019-04-03T18:55:27.864Z,14.56
2019-04-03T18:57:59.763Z,14.55
2019-04-03T19:00:31.237Z,14.50
2019-04-03T19:03:02.472Z,14.48
2019-04-03T19:05:35.405Z,14.48
2019-04-03T19:08:12.845Z,14.47
2019-04-03T19:10:39.847Z,14.42
2019-04-03T19:13:13.654Z,14.36
2019-04-03T19:15:44.208Z,14.35
2019-04-03T19:18:19.688Z,14.33
2019-04-03T19:20:48.028Z,14.30
2019-04-03T19:23:22.203Z,14.28
2019-04-03T19:25:52.921Z,14.24
2019-04-03T19:28:23.918Z,14.20
2019-04-03T19:30:55.280Z,14.11
2019-04-03T19:33:26.230Z,14.10
2019-04-03T19:35:58.669Z,14.11
2019-04-03T19:38:31.013Z,14.07
2019-04-03T19:41:06.782Z,14.06
2019-04-03T19:43:39.240Z,14.07
2019-04-03T19:46:10.506Z,14.03
2019-04-03T19:48:42.040Z,13.99
2019-04-03T19:51:13.780Z,13.96
2019-04-03T19:53:53.537Z,13.91
2019-04-03T19:56:17.414Z,13.86
2019-04-03T19:58:48.306Z,13.91
2019-04-03T20:01:20.704Z,13.84
2019-04-03T20:03:52.066Z,13.82
2019-04-03T20:06:23.284Z,13.78
2019-04-03T20:08:55.832Z,13.76
2019-04-03T20:11:27.084Z,13.70
2019-04-03T20:13:59.184Z,13.69
2019-04-03T20:16:34.743Z,13.67
2019-04-03T20:19:08.871Z,13.59
2019-04-03T20:21:41.583Z,13.58
2019-04-03T20:24:13.397Z,13.54
2019-04-03T20:26:46.642Z,13.51
2019-04-03T20:29:18.801Z,13.48
2019-04-03T20:31:49.599Z,13.41
2019-04-03T20:34:21.974Z,13.42
2019-04-03T20:36:54.970Z,13.37
2019-04-03T20:39:29.058Z,13.35
2019-04-03T20:42:03.119Z,13.33
2019-04-03T20:44:34.468Z,13.30
2019-04-03T20:47:06.273Z,13.27
2019-04-03T20:49:37.609Z,13.25
2019-04-03T20:52:11.446Z,13.21
2019-04-03T20:54:43.833Z,13.13
2019-04-03T20:57:15.374Z,13.10
2019-04-03T20:59:58.542Z,13.06
2019-04-03T21:02:19.323Z,13.03
2019-04-03T21:04:50.878Z,13.00
2019-04-03T21:07:23.950Z,12.96
2019-04-03T21:09:54.573Z,12.97
2019-04-03T21:12:25.843Z,12.88
2019-04-03T21:15:07.616Z,12.89
2019-04-03T21:17:29.947Z,12.87
2019-04-03T21:20:00.717Z,12.84
2019-04-03T21:22:32.781Z,12.77
2019-04-03T21:25:05.949Z,12.75
2019-04-03T21:27:40.114Z,12.67
2019-04-03T21:30:11.973Z,12.65
2019-04-03T21:32:43.853Z,12.63
2019-04-03T21:35:14.719Z,12.55
2019-04-03T21:37:45.567Z,12.53
2019-04-03T21:40:16.224Z,12.51
2019-04-03T21:42:47.250Z,12.52
2019-04-03T21:45:18.448Z,12.50
2019-04-03T21:47:49.529Z,12.50
2019-04-03T21:50:20.673Z,12.44
2019-04-03T21:52:53.459Z,12.39
2019-04-03T21:55:24.216Z,12.34
2019-04-03T21:57:55.639Z,12.36
2019-04-03T22:00:31.821Z,12.30
2019-04-03T22:03:03.065Z,12.30
2019-04-03T22:05:34.946Z,12.28
2019-04-03T22:08:06.588Z,12.24
2019-04-03T22:10:38.227Z,12.19
2019-04-03T22:13:10.310Z,12.11
2019-04-03T22:15:45.262Z,12.07
2019-04-03T22:18:15.480Z,12.06
2019-04-03T22:20:46.253Z,12.05
2019-04-03T22:23:17.562Z,11.97
2019-04-03T22:25:48.592Z,11.94
2019-04-03T22:28:20.308Z,11.94
2019-04-03T22:30:52.517Z,11.90
2019-04-03T22:33:25.921Z,11.85
2019-04-03T22:35:57.692Z,11.79
2019-04-03T22:38:30.585Z,11.74
2019-04-03T22:41:01.526Z,11.69
2019-04-03T22:43:33.585Z,11.65
2019-04-03T22:46:05.545Z,11.63
2019-04-03T22:48:37.663Z,11.60
2019-04-03T22:51:09.743Z,11.58
2019-04-03T22:53:42.229Z,11.57
2019-04-03T22:56:12.989Z,11.52
2019-04-03T22:58:43.863Z,11.48
2019-04-03T23:01:14.869Z,11.45
2019-04-03T23:03:45.693Z,11.41
2019-04-03T23:06:18.796Z,11.37
2019-04-03T23:08:50.021Z,11.40
2019-04-03T23:11:21.189Z,11.32
2019-04-03T23:13:52.387Z,11.38
2019-04-03T23:16:24.247Z,11.37
2019-04-03T23:18:55.809Z,11.36
2019-04-03T23:21:27.224Z,11.36
2019-04-03T23:23:59.261Z,11.28
2019-04-03T23:26:32.172Z,11.30
2019-04-03T23:29:05.163Z,11.24
2019-04-03T23:31:36.520Z,11.21
2019-04-03T23:34:07.443Z,11.24
2019-04-03T23:36:38.536Z,11.24
2019-04-03T23:39:10.065Z,11.17
2019-04-03T23:41:41.574Z,11.16
2019-04-03T23:44:12.629Z,11.06
2019-04-03T23:46:45.648Z,11.03
2019-04-03T23:49:18.146Z,10.99
2019-04-03T23:51:49.694Z,10.99
2019-04-03T23:54:20.410Z,10.94
2019-04-03T23:56:51.146Z,10.86
2019-04-03T23:59:22.357Z,10.87
